NCAR-RAP Real-Time Weather Data

Output produced by METARs form (30 March 2017  08:40 UTC)
found at http://weather.rap.ucar.edu/surface/
 
Conditions at: KALB observed 30 March 2017  07:51 UTC
Temperature: -1.1°C (30°F)
Dewpoint: -6.1°C (21°F) [RH = 69%]
Pressure (altimeter): 30.24 inches Hg (1024.1 mb)
[Sea-level pressure: 1024.1 mb]
Winds: from the NNW (340 degrees) at 6 MPH (5 knots; 2.6 m/s)
Visibility: 10 or more miles (16+ km)
Ceiling: at least 12,000 feet AGL
Clouds: few clouds at 4800 feet AGL
Present Weather: no significant weather observed at this time
KALB 300751Z 34005KT 10SM FEW048 M01/M06 A3024 RMK AO2 SLP241 T10111061

Conditions at: KALB observed 30 March 2017  06:51 UTC
Temperature: 0.0°C (32°F)
Dewpoint: -6.1°C (21°F) [RH = 63%]
Pressure (altimeter): 30.22 inches Hg (1023.5 mb)
[Sea-level pressure: 1023.7 mb]
Winds: from the N (10 degrees) at 5 MPH (4 knots; 2.1 m/s)
Visibility: 10 or more miles (16+ km)
Ceiling: at least 12,000 feet AGL
Clouds: scattered clouds at 4800 feet AGL
Present Weather: no significant weather observed at this time
KALB 300651Z 01004KT 10SM SCT048 00/M06 A3022 RMK AO2 SLP237 T00001061

Conditions at: KALB observed 30 March 2017  05:51 UTC
Temperature: 0.0°C (32°F)
Dewpoint: -6.7°C (20°F) [RH = 61%]
Pressure (altimeter): 30.22 inches Hg (1023.5 mb)
[Sea-level pressure: 1023.6 mb]
Winds: from the N (350 degrees) at 5 MPH (4 knots; 2.1 m/s)
Visibility: 10 or more miles (16+ km)
Ceiling: at least 12,000 feet AGL
Clouds: few clouds at 5000 feet AGL
Present Weather: no significant weather observed at this time
KALB 300551Z 35004KT 10SM FEW050 00/M07 A3022 RMK AO2 SLP236 T00001067 10050 21006 56010

Conditions at: KALB observed 30 March 2017  04:51 UTC
Temperature: 1.1°C (34°F)
Dewpoint: -6.7°C (20°F) [RH = 56%]
Pressure (altimeter): 30.23 inches Hg (1023.8 mb)
[Sea-level pressure: 1024.0 mb]
Winds: from the WNW (300 degrees) at 9 MPH (8 knots; 4.2 m/s)
Visibility: 10 or more miles (16+ km)
Ceiling: at least 12,000 feet AGL
Clouds: sky clear below 12,000 feet AGL
Present Weather: no significant weather observed at this time
KALB 300451Z 30008KT 10SM CLR 01/M07 A3023 RMK AO2 SLP240 T00111067 401000006

Conditions at: KALB observed 30 March 2017  03:51 UTC
Temperature: 1.1°C (34°F)
Dewpoint: -7.2°C (19°F) [RH = 54%]
Pressure (altimeter): 30.23 inches Hg (1023.8 mb)
[Sea-level pressure: 1024.0 mb]
Winds: from the NW (320 degrees) at 8 MPH (7 knots; 3.6 m/s)
Visibility: 10 or more miles (16+ km)
Ceiling: at least 12,000 feet AGL
Clouds: sky clear below 12,000 feet AGL
Present Weather: no significant weather observed at this time
KALB 300351Z 32007KT 10SM CLR 01/M07 A3023 RMK AO2 SLP240 T00111072

Conditions at: KALB observed 30 March 2017  02:51 UTC
Temperature: 2.8°C (37°F)
Dewpoint: -6.7°C (20°F) [RH = 50%]
Pressure (altimeter): 30.25 inches Hg (1024.5 mb)
[Sea-level pressure: 1024.6 mb]
Winds: from the NW (320 degrees) at 12 MPH (10 knots; 5.2 m/s)
Visibility: 10 or more miles (16+ km)
Ceiling: at least 12,000 feet AGL
Clouds: few clouds at 26000 feet AGL
Present Weather: no significant weather observed at this time
KALB 300251Z 32010KT 10SM FEW260 03/M07 A3025 RMK AO2 SLP246 T00281067 51005

Conditions at: KALB observed 30 March 2017  01:51 UTC
Temperature: 2.8°C (37°F)
Dewpoint: -6.7°C (20°F) [RH = 50%]
Pressure (altimeter): 30.25 inches Hg (1024.5 mb)
[Sea-level pressure: 1024.5 mb]
Winds: from the NW (320 degrees) at 8 MPH (7 knots; 3.6 m/s)
Visibility: 10 or more miles (16+ km)
Ceiling: at least 12,000 feet AGL
Clouds: few clouds at 26000 feet AGL
Present Weather: no significant weather observed at this time
KALB 300151Z 32007KT 10SM FEW260 03/M07 A3025 RMK AO2 SLP245 T00281067

Conditions at: KALB observed 30 March 2017  00:51 UTC
Temperature: 2.8°C (37°F)
Dewpoint: -6.1°C (21°F) [RH = 52%]
Pressure (altimeter): 30.25 inches Hg (1024.5 mb)
[Sea-level pressure: 1024.4 mb]
Winds: from the NW (320 degrees) at 9 MPH (8 knots; 4.2 m/s)
Visibility: 10 or more miles (16+ km)
Ceiling: at least 12,000 feet AGL
Clouds: scattered clouds at 6000 feet AGL
scattered clouds at 26000 feet AGL
Present Weather: no significant weather observed at this time
KALB 300051Z 32008KT 10SM SCT060 SCT260 03/M06 A3025 RMK AO2 SLP244 T00281061

Conditions at: KALB observed 29 March 2017  23:51 UTC
Temperature: 5.0°C (41°F)
Dewpoint: -6.1°C (21°F) [RH = 44%]
Pressure (altimeter): 30.23 inches Hg (1023.8 mb)
[Sea-level pressure: 1024.1 mb]
Winds: from the N (350 degrees) at 7 MPH (6 knots; 3.1 m/s)
Visibility: 10 or more miles (16+ km)
Ceiling: 5500 feet AGL
Clouds: broken clouds at 5500 feet AGL
broken clouds at 26000 feet AGL
Present Weather: no significant weather observed at this time
KALB 292351Z 35006KT 10SM BKN055 BKN260 05/M06 A3023 RMK AO2 SLP241 T00501061 10100 20050 53035

Conditions at: KALB observed 29 March 2017  22:51 UTC
Temperature: 6.1°C (43°F)
Dewpoint: -6.1°C (21°F) [RH = 41%]
Pressure (altimeter): 30.20 inches Hg (1022.8 mb)
[Sea-level pressure: 1022.9 mb]
Winds: from the NNW (340 degrees) at 16 MPH (14 knots; 7.3 m/s)
gusting to 23 MPH (20 knots; 10.4 m/s)
Visibility: 10 or more miles (16+ km)
Ceiling: 6000 feet AGL
Clouds: few clouds at 5000 feet AGL
broken clouds at 6000 feet AGL
Present Weather: no significant weather observed at this time
KALB 292251Z 34014G20KT 10SM FEW050 BKN060 06/M06 A3020 RMK AO2 SLP229 T00611061

Conditions at: KALB observed 29 March 2017  21:51 UTC
Temperature: 7.8°C (46°F)
Dewpoint: -5.6°C (22°F) [RH = 38%]
Pressure (altimeter): 30.16 inches Hg (1021.4 mb)
[Sea-level pressure: 1021.5 mb]
Winds: from the NNW (340 degrees) at 21 MPH (18 knots; 9.4 m/s)
gusting to 26 MPH (23 knots; 12.0 m/s)
Visibility: 10 or more miles (16+ km)
Ceiling: 6000 feet AGL
Clouds: few clouds at 4200 feet AGL
broken clouds at 6000 feet AGL
Present Weather: no significant weather observed at this time
KALB 292151Z 34018G23KT 10SM FEW042 BKN060 08/M06 A3016 RMK AO2 SLP215 T00781056

Conditions at: KALB observed 29 March 2017  20:51 UTC
Temperature: 9.4°C (49°F)
Dewpoint: -5.0°C (23°F) [RH = 36%]
Pressure (altimeter): 30.13 inches Hg (1020.4 mb)
[Sea-level pressure: 1020.5 mb]
Winds: from the NNW (330 degrees) at 17 MPH (15 knots; 7.8 m/s)
gusting to 25 MPH (22 knots; 11.4 m/s)
Visibility: 10 or more miles (16+ km)
Ceiling: at least 12,000 feet AGL
Clouds: few clouds at 4200 feet AGL
few clouds at 5500 feet AGL
scattered clouds at 6500 feet AGL
Present Weather: no significant weather observed at this time
KALB 292051Z 33015G22KT 10SM FEW042 FEW055 SCT065 09/M05 A3013 RMK AO2 SLP205 T00941050 53001